createdAt,value
2022-08-17T00:01:51.708Z,8.30
2022-08-17T00:04:21.916Z,8.50
2022-08-17T00:06:50.844Z,7.80
2022-08-17T00:09:19.532Z,7.10
2022-08-17T00:12:34.714Z,7.70
2022-08-17T00:14:38.644Z,7.60
2022-08-17T00:17:07.211Z,8.50
2022-08-17T00:19:35.562Z,7.70
2022-08-17T00:22:33.948Z,7.80
2022-08-17T00:24:55.362Z,6.70
2022-08-17T00:27:24.454Z,7.50
2022-08-17T00:29:52.826Z,7.10
2022-08-17T00:33:12.397Z,6.70
2022-08-17T00:35:11.524Z,6.20
2022-08-17T00:37:40.580Z,5.40
2022-08-17T00:40:12.314Z,5.70
2022-08-17T00:42:41.750Z,5.50
2022-08-17T00:45:12.171Z,4.80
2022-08-17T00:48:28.984Z,5.20
2022-08-17T00:51:01.053Z,4.90
2022-08-17T00:53:31.886Z,4.90
2022-08-17T00:56:03.613Z,5.00
2022-08-17T00:58:36.037Z,5.10
2022-08-17T01:01:07.134Z,5.20
2022-08-17T01:03:37.609Z,5.70
2022-08-17T01:06:08.369Z,4.90
2022-08-17T01:08:39.069Z,5.00
2022-08-17T01:11:08.473Z,5.60
2022-08-17T01:13:43.121Z,5.60
2022-08-17T01:20:22.249Z,5.00
2022-08-17T01:22:50.795Z,5.00
2022-08-17T01:25:20.949Z,5.20
2022-08-17T01:27:50.104Z,4.90
2022-08-17T01:30:58.439Z,4.90
2022-08-17T01:33:11.666Z,5.20
2022-08-17T01:35:40.485Z,5.00
2022-08-17T01:38:09.726Z,5.60
2022-08-17T01:40:43.410Z,5.00
2022-08-17T01:43:20.210Z,4.80
2022-08-17T01:46:03.591Z,5.10
2022-08-17T01:48:35.354Z,5.40
2022-08-17T01:51:06.308Z,6.00
2022-08-17T01:54:02.682Z,5.80
2022-08-17T01:56:34.511Z,5.20
2022-08-17T01:59:03.210Z,5.10
2022-08-17T02:01:34.781Z,5.40
2022-08-17T02:04:05.667Z,5.30
2022-08-17T02:06:44.903Z,5.20
2022-08-17T02:09:29.855Z,4.80
2022-08-17T02:12:04.790Z,5.50
2022-08-17T02:14:51.727Z,5.10
2022-08-17T02:17:20.082Z,5.30
2022-08-17T02:19:48.520Z,5.10
2022-08-17T02:22:18.544Z,5.10
2022-08-17T02:24:59.568Z,4.60
2022-08-17T02:27:31.040Z,5.00
2022-08-17T02:29:59.485Z,4.90
2022-08-17T02:32:28.778Z,5.50
2022-08-17T02:34:58.639Z,5.40
2022-08-17T02:37:28.719Z,4.80
2022-08-17T02:40:14.034Z,5.40
2022-08-17T02:42:44.842Z,5.20
2022-08-17T02:47:45.253Z,5.10
2022-08-17T02:50:16.976Z,5.00
2022-08-17T02:53:02.463Z,5.30
2022-08-17T02:55:35.557Z,5.30
2022-08-17T02:58:05.124Z,4.80
2022-08-17T03:01:03.608Z,5.50
2022-08-17T03:03:32.438Z,5.00
2022-08-17T03:06:01.552Z,5.50
2022-08-17T03:08:30.744Z,4.90
2022-08-17T03:10:59.970Z,5.90
2022-08-17T03:13:28.230Z,5.70
2022-08-17T03:15:56.992Z,5.10
2022-08-17T03:18:26.355Z,5.10
2022-08-17T03:20:57.773Z,5.80
2022-08-17T03:23:27.651Z,5.00
2022-08-17T03:25:58.921Z,5.30
2022-08-17T03:28:28.653Z,5.90
2022-08-17T03:30:57.010Z,5.40
2022-08-17T03:33:25.405Z,5.90
2022-08-17T03:35:53.814Z,6.00
2022-08-17T03:38:22.191Z,5.70
2022-08-17T03:40:56.488Z,5.40
2022-08-17T03:43:31.266Z,6.00
2022-08-17T03:46:27.724Z,5.60
2022-08-17T03:49:16.339Z,4.90
2022-08-17T03:52:03.397Z,5.20
2022-08-17T03:54:50.663Z,5.30
2022-08-17T03:57:19.500Z,6.40
2022-08-17T03:59:47.997Z,6.70
2022-08-17T04:02:22.066Z,5.70
2022-08-17T04:04:51.333Z,5.80
2022-08-17T04:07:25.592Z,5.40
2022-08-17T04:10:11.931Z,6.10
2022-08-17T04:12:50.347Z,5.40
2022-08-17T04:15:19.136Z,5.60
2022-08-17T04:17:47.770Z,6.10
2022-08-17T04:20:18.245Z,6.50
2022-08-17T04:23:04.226Z,6.30
2022-08-17T04:25:35.062Z,5.80
2022-08-17T04:28:05.143Z,6.10
2022-08-17T04:30:38.698Z,6.00
2022-08-17T04:33:14.345Z,6.10
2022-08-17T04:36:22.452Z,6.40
2022-08-17T04:38:50.887Z,6.50
2022-08-17T04:41:37.899Z,6.30
2022-08-17T04:44:12.092Z,6.40
2022-08-17T04:46:40.442Z,6.60
2022-08-17T04:49:11.230Z,6.40
2022-08-17T04:51:54.442Z,6.10
2022-08-17T04:54:25.280Z,6.50
2022-08-17T04:56:53.620Z,5.70
2022-08-17T04:59:22.760Z,5.30
2022-08-17T05:01:52.164Z,5.70
2022-08-17T05:08:22.374Z,6.90
2022-08-17T05:10:50.921Z,6.10
2022-08-17T05:13:27.017Z,6.60
2022-08-17T05:15:59.007Z,6.80
2022-08-17T05:18:28.809Z,5.90
2022-08-17T05:20:57.462Z,6.00
2022-08-17T05:23:35.004Z,6.20
2022-08-17T05:26:25.504Z,5.50
2022-08-17T05:28:59.836Z,6.10
2022-08-17T05:31:30.121Z,6.50
2022-08-17T05:33:59.230Z,5.90
2022-08-17T05:36:42.300Z,6.60
2022-08-17T05:39:56.917Z,5.60
2022-08-17T05:47:06.587Z,6.30
2022-08-17T05:54:17.860Z,5.80
2022-08-17T06:01:28.033Z,5.50
2022-08-17T06:04:02.558Z,5.80
2022-08-17T06:11:02.860Z,5.70
2022-08-17T06:17:59.336Z,5.90
2022-08-17T06:28:47.986Z,5.30
2022-08-17T06:33:28.988Z,5.50
2022-08-17T06:36:17.678Z,5.30
2022-08-17T06:43:19.334Z,4.40
2022-08-17T06:45:54.446Z,4.70
2022-08-17T06:48:59.514Z,4.50
2022-08-17T06:56:00.672Z,4.30
2022-08-17T06:58:31.625Z,4.20
2022-08-17T07:08:12.489Z,4.60
2022-08-17T07:23:48.543Z,4.80
2022-08-17T07:26:16.850Z,4.70
2022-08-17T07:28:45.566Z,4.90
2022-08-17T07:31:17.422Z,4.30
2022-08-17T07:38:26.869Z,3.70
2022-08-17T07:41:02.256Z,4.40
2022-08-17T07:43:52.726Z,4.40
2022-08-17T07:46:46.535Z,4.20
2022-08-17T07:49:14.786Z,4.10
2022-08-17T07:51:43.488Z,4.30
2022-08-17T07:55:22.451Z,4.30
2022-08-17T07:57:57.648Z,4.10
2022-08-17T08:01:08.515Z,4.40
2022-08-17T08:03:52.393Z,4.40
2022-08-17T08:06:24.862Z,3.80
2022-08-17T08:08:56.711Z,4.10
2022-08-17T08:11:31.050Z,4.30
2022-08-17T08:18:04.665Z,3.90
2022-08-17T08:21:20.332Z,3.70
2022-08-17T08:25:30.271Z,3.90
2022-08-17T08:32:28.219Z,3.80
2022-08-17T08:35:08.706Z,3.60
2022-08-17T08:47:27.319Z,4.00
2022-08-17T08:59:57.727Z,4.50
2022-08-17T09:08:31.198Z,4.90
2022-08-17T09:19:50.368Z,5.30
2022-08-17T09:22:31.789Z,5.00
2022-08-17T09:29:57.930Z,4.90
2022-08-17T09:46:11.884Z,5.40
2022-08-17T09:48:59.156Z,5.50
2022-08-17T09:57:30.682Z,6.10
2022-08-17T10:07:56.500Z,5.60
2022-08-17T10:10:52.474Z,5.50
2022-08-17T10:17:43.341Z,6.80
2022-08-17T10:25:24.820Z,5.50
2022-08-17T10:28:05.517Z,5.20
2022-08-17T10:42:50.350Z,5.10
2022-08-17T10:55:20.660Z,5.10
2022-08-17T11:07:02.316Z,5.00
2022-08-17T11:09:51.284Z,5.20
2022-08-17T11:25:55.715Z,5.00
2022-08-17T11:29:05.428Z,5.20
2022-08-17T11:32:48.807Z,5.20
2022-08-17T11:36:59.026Z,4.60
2022-08-17T11:44:13.696Z,5.10
2022-08-17T11:51:34.717Z,4.80
2022-08-17T11:58:40.219Z,5.10
2022-08-17T12:01:13.745Z,4.80
2022-08-17T12:04:38.561Z,5.30
2022-08-17T12:23:23.361Z,4.60
2022-08-17T12:30:32.508Z,4.80
2022-08-17T12:42:29.543Z,4.80
2022-08-17T12:45:39.977Z,5.00
2022-08-17T12:48:14.003Z,4.80
2022-08-17T12:50:58.846Z,5.60
2022-08-17T12:55:40.592Z,4.60
2022-08-17T13:04:29.717Z,5.00
2022-08-17T13:11:29.264Z,4.90
2022-08-17T13:15:34.960Z,5.20
2022-08-17T13:19:43.915Z,5.00
2022-08-17T13:23:19.777Z,4.80
2022-08-17T13:25:56.420Z,5.30
2022-08-17T13:28:35.478Z,4.90
2022-08-17T13:31:24.580Z,5.00
2022-08-17T13:33:53.026Z,4.80
2022-08-17T13:36:30.627Z,4.80
2022-08-17T13:54:41.418Z,5.30
2022-08-17T14:01:46.569Z,5.60
2022-08-17T14:04:24.493Z,5.40
2022-08-17T14:08:06.406Z,5.20
2022-08-17T14:10:36.819Z,5.40
2022-08-17T14:15:55.245Z,5.30
2022-08-17T14:18:35.726Z,5.40
2022-08-17T14:21:13.362Z,5.00
2022-08-17T14:28:11.116Z,5.10
2022-08-17T14:30:41.209Z,5.30
2022-08-17T14:33:10.064Z,5.50
2022-08-17T14:35:38.393Z,5.50
2022-08-17T14:38:06.746Z,5.70
2022-08-17T14:40:36.220Z,5.30
2022-08-17T14:43:04.655Z,5.70
2022-08-17T14:45:33.572Z,5.50
2022-08-17T14:48:07.855Z,6.10
2022-08-17T14:50:40.386Z,6.50
2022-08-17T14:53:11.683Z,6.90
2022-08-17T14:55:40.726Z,7.80
2022-08-17T14:58:09.554Z,6.80
2022-08-17T15:00:39.661Z,7.40
2022-08-17T15:03:08.043Z,6.90
2022-08-17T15:05:38.296Z,7.10
2022-08-17T15:08:07.283Z,7.80
2022-08-17T15:10:36.701Z,6.90
2022-08-17T15:13:10.948Z,7.10
2022-08-17T15:15:58.789Z,7.40
2022-08-17T15:21:27.401Z,6.90
2022-08-17T15:23:55.792Z,6.60
2022-08-17T15:26:26.396Z,6.90
2022-08-17T15:28:56.329Z,7.30
2022-08-17T15:31:31.609Z,6.90
2022-08-17T15:34:00.878Z,6.40
2022-08-17T15:36:29.203Z,7.00
2022-08-17T15:38:59.165Z,7.00
2022-08-17T15:41:28.472Z,7.40
2022-08-17T15:43:57.219Z,6.90
2022-08-17T15:46:26.820Z,6.50
2022-08-17T15:49:00.339Z,6.20
2022-08-17T15:51:33.856Z,6.00
2022-08-17T15:54:18.750Z,6.30
2022-08-17T15:56:51.099Z,6.90
2022-08-17T15:59:19.565Z,9.30
2022-08-17T16:03:14.560Z,7.60
2022-08-17T16:04:37.030Z,5.90
2022-08-17T16:07:09.206Z,6.00
2022-08-17T16:09:38.700Z,5.70
2022-08-17T16:15:24.902Z,5.90
2022-08-17T16:17:53.583Z,5.30
2022-08-17T16:20:22.405Z,5.80
2022-08-17T16:22:51.525Z,5.80
2022-08-17T16:25:47.110Z,5.80
2022-08-17T16:28:15.054Z,6.20
2022-08-17T16:30:44.695Z,6.10
2022-08-17T16:33:13.807Z,5.50
2022-08-17T16:35:42.253Z,6.10
2022-08-17T16:38:11.142Z,5.10
2022-08-17T16:40:40.674Z,5.20
2022-08-17T16:43:10.825Z,5.00
2022-08-17T16:45:40.969Z,5.50
2022-08-17T16:48:10.313Z,5.70
2022-08-17T16:50:39.103Z,5.40
2022-08-17T16:53:19.611Z,5.70
2022-08-17T16:55:52.169Z,5.60
2022-08-17T16:58:20.574Z,5.90
2022-08-17T17:00:49.163Z,6.10
2022-08-17T17:03:21.979Z,5.90
2022-08-17T17:06:01.921Z,6.00
2022-08-17T17:09:00.594Z,6.10
2022-08-17T17:11:44.446Z,6.40
2022-08-17T17:14:30.868Z,5.70
2022-08-17T17:16:59.128Z,6.00
2022-08-17T17:19:38.647Z,6.30
2022-08-17T17:22:22.963Z,6.10
2022-08-17T17:25:26.972Z,6.10
2022-08-17T17:28:32.015Z,6.50
2022-08-17T17:31:16.374Z,6.70
2022-08-17T17:33:56.605Z,6.40
2022-08-17T17:36:48.371Z,6.80
2022-08-17T17:39:44.136Z,6.20
2022-08-17T17:42:19.943Z,7.10
2022-08-17T17:45:32.796Z,6.50
2022-08-17T17:48:03.044Z,7.10
2022-08-17T17:51:01.859Z,7.10
2022-08-17T17:54:05.890Z,7.00
2022-08-17T18:00:14.748Z,6.80
2022-08-17T18:02:58.060Z,7.30
2022-08-17T18:05:51.264Z,7.30
2022-08-17T18:08:34.128Z,7.30
2022-08-17T18:11:25.161Z,7.60
2022-08-17T18:14:24.253Z,7.90
2022-08-17T18:16:58.662Z,7.90
2022-08-17T18:19:31.462Z,7.70
2022-08-17T18:22:06.759Z,8.00
2022-08-17T18:24:39.078Z,7.90
2022-08-17T18:27:36.395Z,7.70
2022-08-17T18:30:13.741Z,8.30
2022-08-17T18:32:43.839Z,8.50
2022-08-17T18:35:13.634Z,8.60
2022-08-17T18:37:53.371Z,8.00
2022-08-17T18:40:30.209Z,7.50
2022-08-17T18:43:43.994Z,7.70
2022-08-17T18:46:36.207Z,8.10
2022-08-17T18:49:20.520Z,7.50
2022-08-17T18:51:48.897Z,7.40
2022-08-17T18:54:25.135Z,7.20
2022-08-17T18:56:59.283Z,7.20
2022-08-17T18:59:42.300Z,7.70
2022-08-17T19:02:27.263Z,6.60
2022-08-17T19:05:33.247Z,7.20
2022-08-17T19:08:33.782Z,7.40
2022-08-17T19:14:10.549Z,7.20
2022-08-17T19:17:25.647Z,7.80
2022-08-17T19:20:21.686Z,7.50
2022-08-17T19:23:16.780Z,7.10
2022-08-17T19:25:50.354Z,7.00
2022-08-17T19:28:27.526Z,7.50
2022-08-17T19:31:04.132Z,7.50
2022-08-17T19:33:34.770Z,7.40
2022-08-17T19:36:44.527Z,7.70
2022-08-17T19:39:16.435Z,7.30
2022-08-17T19:41:55.031Z,7.30
2022-08-17T19:45:03.925Z,7.50
2022-08-17T19:48:04.534Z,7.50
2022-08-17T19:50:55.365Z,8.00
2022-08-17T19:53:47.435Z,7.60
2022-08-17T19:56:42.649Z,7.10
2022-08-17T19:59:49.175Z,7.60
2022-08-17T20:02:20.588Z,7.60
2022-08-17T20:04:51.272Z,7.50
2022-08-17T20:07:38.661Z,7.80
2022-08-17T20:10:57.388Z,7.30
2022-08-17T20:13:53.756Z,7.90
2022-08-17T20:16:26.790Z,7.00
2022-08-17T20:19:00.681Z,7.50
2022-08-17T20:26:12.311Z,7.20
2022-08-17T20:29:31.948Z,7.10
2022-08-17T20:36:19.751Z,8.10
2022-08-17T20:39:00.231Z,6.90
2022-08-17T20:43:58.967Z,7.40
2022-08-17T20:46:33.438Z,7.90
2022-08-17T20:49:52.411Z,7.60
2022-08-17T20:52:57.557Z,7.60
2022-08-17T20:55:51.929Z,8.20
2022-08-17T20:58:30.884Z,7.50
2022-08-17T21:01:01.092Z,7.70
2022-08-17T21:03:50.079Z,7.90
2022-08-17T21:06:20.841Z,7.40
2022-08-17T21:08:55.384Z,7.60
2022-08-17T21:12:02.835Z,8.20
2022-08-17T21:14:37.565Z,7.40
2022-08-17T21:17:24.644Z,8.00
2022-08-17T21:20:32.328Z,7.90
2022-08-17T21:23:01.199Z,7.90
2022-08-17T21:26:03.431Z,7.20
2022-08-17T21:29:30.349Z,7.30
2022-08-17T21:32:00.660Z,7.40
2022-08-17T21:34:37.967Z,7.90
2022-08-17T21:37:42.449Z,8.10
2022-08-17T21:40:10.751Z,7.60
2022-08-17T21:43:05.443Z,8.10
2022-08-17T21:45:37.439Z,7.30
2022-08-17T21:48:07.917Z,7.50
2022-08-17T21:53:05.865Z,7.40
2022-08-17T21:55:36.680Z,7.90
2022-08-17T21:58:28.345Z,7.70
2022-08-17T22:01:21.194Z,7.60
2022-08-17T22:04:27.282Z,7.40
2022-08-17T22:06:58.352Z,8.40
2022-08-17T22:09:31.941Z,8.10
2022-08-17T22:12:09.349Z,7.80
2022-08-17T22:14:53.003Z,7.90
2022-08-17T22:17:29.496Z,7.80
2022-08-17T22:24:18.165Z,8.40
2022-08-17T22:27:07.149Z,7.80
2022-08-17T22:29:58.152Z,8.60
2022-08-17T22:32:32.714Z,8.50
2022-08-17T22:35:39.317Z,7.80
2022-08-17T22:38:19.582Z,7.50
2022-08-17T22:41:14.105Z,7.80
2022-08-17T22:43:43.760Z,8.40
2022-08-17T22:46:15.186Z,7.90
2022-08-17T22:48:53.501Z,8.00
2022-08-17T22:51:26.447Z,8.40
2022-08-17T22:54:21.115Z,8.60
2022-08-17T22:57:21.062Z,7.80
2022-08-17T22:59:56.020Z,8.50
2022-08-17T23:02:33.042Z,8.20
2022-08-17T23:05:13.206Z,8.90
2022-08-17T23:07:43.326Z,8.10
2022-08-17T23:10:13.778Z,7.70
2022-08-17T23:12:42.632Z,8.00
2022-08-17T23:15:15.303Z,7.60
2022-08-17T23:17:49.566Z,8.10
2022-08-17T23:20:18.185Z,7.90
2022-08-17T23:22:51.812Z,7.80
2022-08-17T23:25:30.110Z,8.00
2022-08-17T23:28:01.817Z,8.10
2022-08-17T23:30:33.566Z,8.10
2022-08-17T23:33:07.723Z,7.90
2022-08-17T23:35:39.601Z,8.30
2022-08-17T23:38:11.473Z,8.40
2022-08-17T23:43:24.138Z,8.10
2022-08-17T23:45:59.894Z,8.70
2022-08-17T23:48:36.089Z,7.70
2022-08-17T23:51:12.603Z,7.60
2022-08-17T23:54:29.568Z,8.90
2022-08-17T23:56:57.916Z,8.60
2022-08-17T23:59:27.778Z,8.20
